HUN111 EETN-LHBP
Flight info
| Callsign | HUN111 |
|---|---|
| Flight time | 1h 57m |
| Altitude | 36000 |
| Route | ORTAX DCT BERIL/N0456F370 DCT SUWGI/N0456F360 DCT NEPOX DCT KELEL/N0446F320 DCT EDEMU |
| Aircraft | A21N/M-SDE2E3FGHIJ1RWXY/LB1 |
Departure
| Time | 2026-05-08 08:39 |
|---|---|
| Airport | Lennart Meri Tallinn Airport (EETN) |
Arrival
| Time | 2026-05-08 10:36 |
|---|---|
| Airport | Budapest Liszt Ferenc International Airport (LHBP) |
| Time | Latitude | Longitude | Altitude | Speed | Heading |
|---|---|---|---|---|---|
| 2026-05-08 08:09 | 59.41581 | 24.80134 | 167 ft | 0 kts | 0° |
| 2026-05-08 08:32 | 59.41578 | 24.80134 | 167 ft | 3 kts | 0° |
| 2026-05-08 08:33 | 59.41553 | 24.80133 | 167 ft | 4 kts | 15° |
| 2026-05-08 08:33 | 59.41534 | 24.80108 | 167 ft | 4 kts | 65° |
| 2026-05-08 08:33 | 59.41529 | 24.80071 | 167 ft | 2 kts | 90° |
| 2026-05-08 08:36 | 59.41529 | 24.80089 | 167 ft | 3 kts | 90° |
| 2026-05-08 08:36 | 59.41529 | 24.80142 | 167 ft | 5 kts | 90° |
| 2026-05-08 08:36 | 59.41528 | 24.80232 | 167 ft | 8 kts | 90° |
| 2026-05-08 08:36 | 59.41528 | 24.80350 | 167 ft | 10 kts | 90° |
| 2026-05-08 08:37 | 59.41493 | 24.80459 | 167 ft | 11 kts | 161° |
| 2026-05-08 08:37 | 59.41417 | 24.80522 | 167 ft | 13 kts | 139° |
| 2026-05-08 08:37 | 59.41353 | 24.80626 | 165 ft | 7 kts | 149° |
| 2026-05-08 08:37 | 59.41332 | 24.80711 | 165 ft | 8 kts | 91° |
| 2026-05-08 08:38 | 59.41330 | 24.81053 | 165 ft | 56 kts | 90° |
| 2026-05-08 08:38 | 59.41330 | 24.81756 | 170 ft | 98 kts | 90° |
| 2026-05-08 08:38 | 59.41323 | 24.84179 | 167 ft | 165 kts | 90° |
| 2026-05-08 08:38 | 59.41321 | 24.86482 | 623 ft | 167 kts | 88° |
| 2026-05-08 08:39 | 59.41342 | 24.87998 | 1021 ft | 168 kts | 87° |
| 2026-05-08 08:39 | 59.41348 | 24.90356 | 1514 ft | 181 kts | 94° |
| 2026-05-08 08:39 | 59.40818 | 24.92698 | 1901 ft | 203 kts | 132° |
| 2026-05-08 08:39 | 59.39519 | 24.94017 | 2406 ft | 226 kts | 172° |
| 2026-05-08 08:40 | 59.37896 | 24.93536 | 2755 ft | 251 kts | 207° |
| 2026-05-08 08:40 | 59.36370 | 24.91673 | 3430 ft | 264 kts | 214° |
| 2026-05-08 08:40 | 59.34825 | 24.89680 | 4319 ft | 266 kts | 213° |
| 2026-05-08 08:40 | 59.33258 | 24.87721 | 5204 ft | 268 kts | 213° |
| 2026-05-08 08:41 | 59.31657 | 24.85776 | 6078 ft | 273 kts | 212° |
| 2026-05-08 08:41 | 59.30043 | 24.83855 | 6922 ft | 276 kts | 212° |
| 2026-05-08 08:41 | 59.28387 | 24.81907 | 7733 ft | 279 kts | 212° |
| 2026-05-08 08:41 | 59.26703 | 24.79941 | 8550 ft | 283 kts | 212° |
| 2026-05-08 08:42 | 59.24996 | 24.77961 | 9384 ft | 286 kts | 212° |
| 2026-05-08 08:42 | 59.23270 | 24.75960 | 10202 ft | 290 kts | 212° |
| 2026-05-08 08:42 | 59.21492 | 24.73900 | 10797 ft | 305 kts | 212° |
| 2026-05-08 08:42 | 59.19627 | 24.71741 | 11127 ft | 326 kts | 212° |
| 2026-05-08 08:43 | 59.17583 | 24.69477 | 11464 ft | 346 kts | 211° |
| 2026-05-08 08:43 | 59.15498 | 24.67082 | 12228 ft | 346 kts | 213° |
| 2026-05-08 08:43 | 59.13451 | 24.64691 | 13276 ft | 339 kts | 213° |
| 2026-05-08 08:43 | 59.11421 | 24.62335 | 14141 ft | 339 kts | 213° |
| 2026-05-08 08:44 | 59.09382 | 24.59985 | 14908 ft | 341 kts | 213° |
| 2026-05-08 08:44 | 59.07353 | 24.57654 | 15606 ft | 345 kts | 213° |
| 2026-05-08 08:44 | 59.05275 | 24.55279 | 16300 ft | 348 kts | 213° |
| 2026-05-08 08:44 | 59.03184 | 24.52894 | 16982 ft | 350 kts | 213° |
| 2026-05-08 08:45 | 59.01075 | 24.50487 | 17630 ft | 353 kts | 213° |
| 2026-05-08 08:45 | 58.98950 | 24.48071 | 18265 ft | 356 kts | 213° |
| 2026-05-08 08:45 | 58.96806 | 24.45637 | 18886 ft | 359 kts | 213° |
| 2026-05-08 08:45 | 58.94643 | 24.43185 | 19488 ft | 361 kts | 213° |
| 2026-05-08 08:46 | 58.92461 | 24.40717 | 20060 ft | 364 kts | 213° |
| 2026-05-08 08:46 | 58.90263 | 24.38232 | 20622 ft | 367 kts | 213° |
| 2026-05-08 08:46 | 58.88045 | 24.35725 | 21145 ft | 370 kts | 213° |
| 2026-05-08 08:46 | 58.85788 | 24.33293 | 21673 ft | 374 kts | 208° |
| 2026-05-08 08:47 | 58.83317 | 24.31563 | 22146 ft | 381 kts | 197° |
| 2026-05-08 08:47 | 58.80687 | 24.30470 | 22435 ft | 391 kts | 194° |
| 2026-05-08 08:47 | 58.77993 | 24.29489 | 22948 ft | 392 kts | 193° |
| 2026-05-08 08:47 | 58.75328 | 24.28516 | 23589 ft | 390 kts | 194° |
| 2026-05-08 08:48 | 58.72690 | 24.27527 | 24082 ft | 391 kts | 194° |
| 2026-05-08 08:48 | 58.70007 | 24.26508 | 24541 ft | 394 kts | 194° |
| 2026-05-08 08:48 | 58.67318 | 24.25481 | 24981 ft | 396 kts | 194° |
| 2026-05-08 08:48 | 58.64603 | 24.24445 | 25408 ft | 399 kts | 194° |
| 2026-05-08 08:49 | 58.61876 | 24.23405 | 25822 ft | 401 kts | 194° |
| 2026-05-08 08:49 | 58.59124 | 24.22355 | 26223 ft | 403 kts | 194° |
| 2026-05-08 08:49 | 58.56363 | 24.21303 | 26606 ft | 405 kts | 194° |
| 2026-05-08 08:49 | 58.53585 | 24.20248 | 26975 ft | 407 kts | 194° |
| 2026-05-08 08:50 | 58.50824 | 24.19203 | 27321 ft | 410 kts | 193° |
| 2026-05-08 08:50 | 58.48016 | 24.18139 | 27666 ft | 411 kts | 193° |
| 2026-05-08 08:50 | 58.45185 | 24.17069 | 28015 ft | 413 kts | 193° |
| 2026-05-08 08:50 | 58.42394 | 24.16015 | 28329 ft | 415 kts | 193° |
| 2026-05-08 08:51 | 58.39552 | 24.14944 | 28651 ft | 417 kts | 193° |
| 2026-05-08 08:51 | 58.36695 | 24.13869 | 28985 ft | 418 kts | 193° |
| 2026-05-08 08:51 | 58.33840 | 24.12797 | 29380 ft | 417 kts | 193° |
| 2026-05-08 08:51 | 58.30998 | 24.11732 | 29779 ft | 416 kts | 193° |
| 2026-05-08 08:52 | 58.28164 | 24.10672 | 30170 ft | 415 kts | 193° |
| 2026-05-08 08:52 | 58.25331 | 24.09612 | 30541 ft | 414 kts | 193° |
| 2026-05-08 08:52 | 58.22507 | 24.08559 | 30885 ft | 413 kts | 193° |
| 2026-05-08 08:52 | 58.19688 | 24.07508 | 31230 ft | 412 kts | 193° |
| 2026-05-08 08:53 | 58.16874 | 24.06461 | 31563 ft | 412 kts | 193° |
| 2026-05-08 08:53 | 58.14094 | 24.05430 | 31876 ft | 411 kts | 193° |
| 2026-05-08 08:53 | 58.11288 | 24.04389 | 32183 ft | 410 kts | 193° |
| 2026-05-08 08:53 | 58.08482 | 24.03350 | 32494 ft | 410 kts | 193° |
| 2026-05-08 08:54 | 58.05682 | 24.02317 | 32769 ft | 409 kts | 193° |
| 2026-05-08 08:54 | 58.02887 | 24.01288 | 33022 ft | 409 kts | 192° |
| 2026-05-08 08:54 | 58.00104 | 24.00267 | 33268 ft | 408 kts | 193° |
| 2026-05-08 08:54 | 57.97307 | 23.99239 | 33499 ft | 408 kts | 193° |
| 2026-05-08 08:55 | 57.94547 | 23.98224 | 33727 ft | 407 kts | 192° |
| 2026-05-08 08:55 | 57.91769 | 23.97203 | 33943 ft | 407 kts | 192° |
| 2026-05-08 08:55 | 57.88992 | 23.96185 | 34161 ft | 406 kts | 192° |
| 2026-05-08 08:55 | 57.86218 | 23.95170 | 34352 ft | 406 kts | 192° |
| 2026-05-08 08:56 | 57.83432 | 23.94156 | 34541 ft | 406 kts | 192° |
| 2026-05-08 08:56 | 57.80695 | 23.93158 | 34733 ft | 406 kts | 192° |
| 2026-05-08 08:56 | 57.77918 | 23.92149 | 34895 ft | 406 kts | 193° |
| 2026-05-08 08:56 | 57.75144 | 23.91141 | 35063 ft | 405 kts | 192° |
| 2026-05-08 08:57 | 57.72367 | 23.90133 | 35223 ft | 405 kts | 192° |
| 2026-05-08 08:57 | 57.69596 | 23.89131 | 35369 ft | 405 kts | 192° |
| 2026-05-08 08:57 | 57.66829 | 23.88130 | 35507 ft | 405 kts | 193° |
| 2026-05-08 08:57 | 57.64089 | 23.87141 | 35652 ft | 405 kts | 192° |
| 2026-05-08 08:58 | 57.61324 | 23.86146 | 35780 ft | 404 kts | 193° |
| 2026-05-08 08:58 | 57.58551 | 23.85149 | 35852 ft | 406 kts | 192° |
| 2026-05-08 08:58 | 57.52984 | 23.83147 | 36012 ft | 408 kts | 192° |
| 2026-05-08 08:59 | 57.47423 | 23.81162 | 36188 ft | 410 kts | 192° |
| 2026-05-08 08:59 | 57.41795 | 23.79155 | 36308 ft | 411 kts | 192° |
| 2026-05-08 09:00 | 57.36163 | 23.77148 | 36295 ft | 411 kts | 192° |
| 2026-05-08 09:00 | 57.30568 | 23.75162 | 36280 ft | 414 kts | 192° |
| 2026-05-08 09:01 | 57.24851 | 23.73144 | 36279 ft | 422 kts | 192° |
| 2026-05-08 09:01 | 57.19015 | 23.71089 | 36279 ft | 430 kts | 192° |
| 2026-05-08 09:02 | 57.13074 | 23.69003 | 36273 ft | 436 kts | 192° |
| 2026-05-08 09:02 | 57.07141 | 23.66928 | 36261 ft | 436 kts | 192° |
| 2026-05-08 09:03 | 57.01175 | 23.64845 | 36260 ft | 435 kts | 192° |
| 2026-05-08 09:03 | 56.95219 | 23.62777 | 36260 ft | 435 kts | 192° |
| 2026-05-08 09:04 | 56.89256 | 23.60708 | 36261 ft | 434 kts | 192° |
| 2026-05-08 09:04 | 56.83311 | 23.58655 | 36260 ft | 435 kts | 192° |
| 2026-05-08 09:05 | 56.77399 | 23.56616 | 36260 ft | 434 kts | 192° |
| 2026-05-08 09:05 | 56.71467 | 23.54583 | 36260 ft | 434 kts | 192° |
| 2026-05-08 09:06 | 56.65535 | 23.52559 | 36259 ft | 433 kts | 192° |
| 2026-05-08 09:06 | 56.59653 | 23.50554 | 36247 ft | 432 kts | 192° |
| 2026-05-08 09:07 | 56.53737 | 23.48543 | 36252 ft | 433 kts | 192° |
| 2026-05-08 09:07 | 56.47821 | 23.46541 | 36251 ft | 432 kts | 192° |
| 2026-05-08 09:08 | 56.41912 | 23.44541 | 36243 ft | 431 kts | 192° |
| 2026-05-08 09:08 | 56.36046 | 23.42606 | 36240 ft | 433 kts | 189° |
| 2026-05-08 09:09 | 56.30095 | 23.41130 | 36239 ft | 433 kts | 188° |
| 2026-05-08 09:09 | 56.24118 | 23.39697 | 36235 ft | 431 kts | 188° |
| 2026-05-08 09:10 | 56.18167 | 23.38267 | 36241 ft | 431 kts | 189° |
| 2026-05-08 09:10 | 56.12220 | 23.36837 | 36233 ft | 431 kts | 189° |
| 2026-05-08 09:11 | 56.06288 | 23.35416 | 36231 ft | 432 kts | 189° |
| 2026-05-08 09:11 | 56.00353 | 23.33983 | 36231 ft | 432 kts | 189° |
| 2026-05-08 09:12 | 55.94395 | 23.32563 | 36229 ft | 430 kts | 188° |
| 2026-05-08 09:12 | 55.88458 | 23.31153 | 36230 ft | 429 kts | 188° |
| 2026-05-08 09:13 | 55.82511 | 23.29747 | 36231 ft | 431 kts | 188° |
| 2026-05-08 09:13 | 55.76605 | 23.28353 | 36230 ft | 430 kts | 188° |
| 2026-05-08 09:14 | 55.70667 | 23.26953 | 36231 ft | 432 kts | 188° |
| 2026-05-08 09:14 | 55.64726 | 23.25560 | 36222 ft | 430 kts | 188° |
| 2026-05-08 09:15 | 55.58790 | 23.24175 | 36221 ft | 432 kts | 188° |
| 2026-05-08 09:15 | 55.52879 | 23.22792 | 36218 ft | 431 kts | 188° |
| 2026-05-08 09:16 | 55.46927 | 23.21408 | 36213 ft | 432 kts | 188° |
| 2026-05-08 09:16 | 55.40994 | 23.20033 | 36204 ft | 430 kts | 188° |
| 2026-05-08 09:17 | 55.35050 | 23.18661 | 36201 ft | 430 kts | 188° |
| 2026-05-08 09:17 | 55.29158 | 23.17299 | 36188 ft | 429 kts | 188° |
| 2026-05-08 09:18 | 55.23218 | 23.15935 | 36189 ft | 430 kts | 188° |
| 2026-05-08 09:18 | 55.17313 | 23.14585 | 36177 ft | 429 kts | 188° |
| 2026-05-08 09:19 | 55.11388 | 23.13225 | 36177 ft | 429 kts | 188° |
| 2026-05-08 09:19 | 55.05451 | 23.11878 | 36170 ft | 431 kts | 188° |
| 2026-05-08 09:20 | 54.99547 | 23.10540 | 36168 ft | 430 kts | 188° |
| 2026-05-08 09:20 | 54.93604 | 23.09195 | 36167 ft | 429 kts | 188° |
| 2026-05-08 09:21 | 54.87672 | 23.07854 | 36157 ft | 428 kts | 188° |
| 2026-05-08 09:23 | 54.66985 | 23.03222 | 36142 ft | 428 kts | 188° |
| 2026-05-08 09:23 | 54.61064 | 23.01905 | 36134 ft | 428 kts | 188° |
| 2026-05-08 09:24 | 54.55172 | 23.00595 | 36136 ft | 428 kts | 188° |
| 2026-05-08 09:24 | 54.49239 | 22.99280 | 36141 ft | 428 kts | 188° |
| 2026-05-08 09:25 | 54.43314 | 22.97970 | 36135 ft | 427 kts | 188° |
| 2026-05-08 09:25 | 54.37395 | 22.96667 | 36125 ft | 428 kts | 188° |
| 2026-05-08 09:26 | 54.31509 | 22.95380 | 36125 ft | 428 kts | 188° |
| 2026-05-08 09:26 | 54.25575 | 22.94080 | 36134 ft | 428 kts | 188° |
| 2026-05-08 09:27 | 54.19643 | 22.92788 | 36131 ft | 427 kts | 188° |
| 2026-05-08 09:27 | 54.13753 | 22.91503 | 36135 ft | 427 kts | 188° |
| 2026-05-08 09:28 | 54.07849 | 22.90197 | 36124 ft | 427 kts | 189° |
| 2026-05-08 09:28 | 54.03054 | 22.88157 | 36124 ft | 427 kts | 196° |
| 2026-05-08 09:29 | 53.97343 | 22.85304 | 36118 ft | 428 kts | 196° |
| 2026-05-08 09:29 | 53.91612 | 22.82476 | 36124 ft | 428 kts | 196° |
| 2026-05-08 09:30 | 53.85925 | 22.79694 | 36121 ft | 428 kts | 196° |
| 2026-05-08 09:30 | 53.80217 | 22.76908 | 36124 ft | 427 kts | 196° |
| 2026-05-08 09:31 | 53.74487 | 22.74117 | 36122 ft | 427 kts | 196° |
| 2026-05-08 09:31 | 53.68762 | 22.71338 | 36121 ft | 428 kts | 196° |
| 2026-05-08 09:32 | 53.63069 | 22.68584 | 36118 ft | 427 kts | 196° |
| 2026-05-08 09:32 | 53.57348 | 22.65821 | 36119 ft | 427 kts | 196° |
| 2026-05-08 09:33 | 53.51629 | 22.63067 | 36114 ft | 426 kts | 196° |
| 2026-05-08 09:33 | 53.45910 | 22.60327 | 36107 ft | 426 kts | 196° |
| 2026-05-08 09:34 | 53.40233 | 22.57607 | 36103 ft | 427 kts | 196° |
| 2026-05-08 09:34 | 53.34512 | 22.54874 | 36098 ft | 427 kts | 196° |
| 2026-05-08 09:35 | 53.28778 | 22.52150 | 36103 ft | 429 kts | 195° |
| 2026-05-08 09:35 | 53.23088 | 22.49445 | 36102 ft | 428 kts | 195° |
| 2026-05-08 09:36 | 53.17343 | 22.46725 | 36101 ft | 429 kts | 195° |
| 2026-05-08 09:36 | 53.11591 | 22.44019 | 36101 ft | 429 kts | 195° |
| 2026-05-08 09:37 | 53.05872 | 22.41330 | 36101 ft | 430 kts | 195° |
| 2026-05-08 09:37 | 53.00136 | 22.38637 | 36098 ft | 428 kts | 195° |
| 2026-05-08 09:38 | 52.94385 | 22.35946 | 36104 ft | 431 kts | 195° |
| 2026-05-08 09:38 | 52.88663 | 22.33275 | 36109 ft | 430 kts | 195° |
| 2026-05-08 09:39 | 52.82900 | 22.30591 | 36107 ft | 430 kts | 195° |
| 2026-05-08 09:39 | 52.77177 | 22.27934 | 36107 ft | 430 kts | 195° |
| 2026-05-08 09:40 | 52.71420 | 22.25275 | 36109 ft | 430 kts | 195° |
| 2026-05-08 09:40 | 52.65656 | 22.22612 | 36108 ft | 429 kts | 195° |
| 2026-05-08 09:41 | 52.59884 | 22.19953 | 36112 ft | 429 kts | 195° |
| 2026-05-08 09:41 | 52.54124 | 22.17313 | 36109 ft | 429 kts | 195° |
| 2026-05-08 09:42 | 52.48389 | 22.14686 | 36109 ft | 429 kts | 195° |
| 2026-05-08 09:42 | 52.42625 | 22.12051 | 36107 ft | 431 kts | 195° |
| 2026-05-08 09:43 | 52.36863 | 22.09422 | 36100 ft | 430 kts | 195° |
| 2026-05-08 09:43 | 52.31121 | 22.06811 | 36100 ft | 430 kts | 195° |
| 2026-05-08 09:44 | 52.25339 | 22.04195 | 36099 ft | 430 kts | 195° |
| 2026-05-08 09:44 | 52.19565 | 22.01586 | 36101 ft | 430 kts | 195° |
| 2026-05-08 09:45 | 52.13855 | 21.98581 | 36102 ft | 432 kts | 201° |
| 2026-05-08 09:45 | 52.08352 | 21.94805 | 36103 ft | 432 kts | 202° |
| 2026-05-08 09:46 | 52.02812 | 21.91005 | 36103 ft | 432 kts | 202° |
| 2026-05-08 09:46 | 51.97275 | 21.87244 | 36100 ft | 432 kts | 202° |
| 2026-05-08 09:47 | 51.91769 | 21.83499 | 36100 ft | 431 kts | 202° |
| 2026-05-08 09:47 | 51.86225 | 21.79743 | 36101 ft | 432 kts | 202° |
| 2026-05-08 09:48 | 51.80681 | 21.76006 | 36100 ft | 432 kts | 202° |
| 2026-05-08 09:48 | 51.75162 | 21.72291 | 36101 ft | 432 kts | 202° |
| 2026-05-08 09:49 | 51.69594 | 21.68561 | 36103 ft | 433 kts | 202° |
| 2026-05-08 09:49 | 51.64050 | 21.64853 | 36098 ft | 431 kts | 202° |
| 2026-05-08 09:50 | 51.58520 | 21.61162 | 36110 ft | 432 kts | 202° |
| 2026-05-08 09:50 | 51.52955 | 21.57461 | 36111 ft | 432 kts | 202° |
| 2026-05-08 09:51 | 51.47384 | 21.53763 | 36110 ft | 434 kts | 202° |
| 2026-05-08 09:51 | 51.41810 | 21.50076 | 36111 ft | 434 kts | 202° |
| 2026-05-08 09:52 | 51.36255 | 21.46407 | 36110 ft | 434 kts | 202° |
| 2026-05-08 09:52 | 51.30665 | 21.42732 | 36112 ft | 435 kts | 202° |
| 2026-05-08 09:53 | 51.25086 | 21.39067 | 36109 ft | 433 kts | 202° |
| 2026-05-08 09:53 | 51.19496 | 21.35404 | 36109 ft | 433 kts | 202° |
| 2026-05-08 09:54 | 51.13932 | 21.31771 | 36111 ft | 434 kts | 202° |
| 2026-05-08 09:54 | 51.08317 | 21.28114 | 36111 ft | 434 kts | 202° |
| 2026-05-08 09:55 | 51.02703 | 21.24465 | 36113 ft | 435 kts | 202° |
| 2026-05-08 09:55 | 50.97137 | 21.20860 | 36112 ft | 436 kts | 202° |
| 2026-05-08 09:56 | 50.91518 | 21.17227 | 36111 ft | 436 kts | 202° |
| 2026-05-08 09:56 | 50.85892 | 21.13605 | 36112 ft | 436 kts | 202° |
| 2026-05-08 09:57 | 50.77503 | 21.08215 | 36110 ft | 435 kts | 202° |
| 2026-05-08 09:57 | 50.71886 | 21.04616 | 36102 ft | 435 kts | 202° |
| 2026-05-08 09:58 | 50.66262 | 21.01023 | 36101 ft | 436 kts | 202° |
| 2026-05-08 09:58 | 50.60670 | 20.97459 | 36102 ft | 436 kts | 202° |
| 2026-05-08 09:59 | 50.55035 | 20.93878 | 36100 ft | 436 kts | 202° |
| 2026-05-08 09:59 | 50.49392 | 20.90300 | 36106 ft | 436 kts | 202° |
| 2026-05-08 10:00 | 50.43783 | 20.86753 | 36110 ft | 436 kts | 202° |
| 2026-05-08 10:00 | 50.38136 | 20.83193 | 36110 ft | 437 kts | 202° |
| 2026-05-08 10:01 | 50.32481 | 20.79635 | 36110 ft | 438 kts | 202° |
| 2026-05-08 10:01 | 50.26832 | 20.76090 | 36111 ft | 437 kts | 202° |
| 2026-05-08 10:02 | 50.21206 | 20.72572 | 36110 ft | 438 kts | 202° |
| 2026-05-08 10:02 | 50.15537 | 20.69036 | 36108 ft | 439 kts | 202° |
| 2026-05-08 10:03 | 50.09876 | 20.65510 | 36113 ft | 439 kts | 202° |
| 2026-05-08 10:03 | 50.04210 | 20.61991 | 36112 ft | 439 kts | 202° |
| 2026-05-08 10:04 | 49.98544 | 20.58482 | 36089 ft | 438 kts | 202° |
| 2026-05-08 10:04 | 49.95715 | 20.56732 | 35927 ft | 437 kts | 203° |
| 2026-05-08 10:04 | 49.92919 | 20.55005 | 35707 ft | 437 kts | 202° |
| 2026-05-08 10:05 | 49.90093 | 20.53263 | 35466 ft | 437 kts | 202° |
| 2026-05-08 10:05 | 49.87268 | 20.51521 | 35222 ft | 437 kts | 202° |
| 2026-05-08 10:05 | 49.84444 | 20.49784 | 34973 ft | 437 kts | 202° |
| 2026-05-08 10:05 | 49.81614 | 20.48045 | 34718 ft | 437 kts | 202° |
| 2026-05-08 10:06 | 49.78786 | 20.46309 | 34475 ft | 436 kts | 202° |
| 2026-05-08 10:06 | 49.75955 | 20.44575 | 34230 ft | 436 kts | 202° |
| 2026-05-08 10:06 | 49.73134 | 20.42849 | 33973 ft | 436 kts | 202° |
| 2026-05-08 10:06 | 49.70347 | 20.41147 | 33725 ft | 435 kts | 202° |
| 2026-05-08 10:07 | 49.67525 | 20.39424 | 33474 ft | 435 kts | 202° |
| 2026-05-08 10:07 | 49.64712 | 20.37710 | 33223 ft | 434 kts | 203° |
| 2026-05-08 10:07 | 49.61901 | 20.35999 | 32972 ft | 433 kts | 202° |
| 2026-05-08 10:07 | 49.59108 | 20.34302 | 32725 ft | 432 kts | 203° |
| 2026-05-08 10:08 | 49.56308 | 20.32600 | 32481 ft | 431 kts | 202° |
| 2026-05-08 10:08 | 49.53516 | 20.30906 | 32224 ft | 430 kts | 202° |
| 2026-05-08 10:08 | 49.50752 | 20.29231 | 32070 ft | 430 kts | 203° |
| 2026-05-08 10:08 | 49.47956 | 20.27539 | 32060 ft | 431 kts | 202° |
| 2026-05-08 10:09 | 49.42406 | 20.24186 | 32082 ft | 430 kts | 203° |
| 2026-05-08 10:09 | 49.36827 | 20.20821 | 32088 ft | 431 kts | 202° |
| 2026-05-08 10:10 | 49.31216 | 20.17565 | 32089 ft | 431 kts | 198° |
| 2026-05-08 10:10 | 49.25354 | 20.15511 | 32085 ft | 432 kts | 193° |
| 2026-05-08 10:11 | 49.19509 | 20.13619 | 32083 ft | 431 kts | 194° |
| 2026-05-08 10:11 | 49.13634 | 20.11701 | 32080 ft | 431 kts | 194° |
| 2026-05-08 10:12 | 49.07762 | 20.09783 | 32079 ft | 431 kts | 194° |
| 2026-05-08 10:12 | 49.01890 | 20.07866 | 32079 ft | 431 kts | 194° |
| 2026-05-08 10:13 | 48.96054 | 20.05966 | 32078 ft | 430 kts | 194° |
| 2026-05-08 10:13 | 48.90224 | 20.04075 | 31899 ft | 423 kts | 194° |
| 2026-05-08 10:14 | 48.87315 | 20.03128 | 31586 ft | 428 kts | 194° |
| 2026-05-08 10:14 | 48.84393 | 20.02179 | 31317 ft | 429 kts | 194° |
| 2026-05-08 10:14 | 48.81506 | 20.01246 | 31069 ft | 429 kts | 194° |
| 2026-05-08 10:14 | 48.78584 | 20.00305 | 30654 ft | 426 kts | 194° |
| 2026-05-08 10:15 | 48.75698 | 19.99373 | 30063 ft | 421 kts | 194° |
| 2026-05-08 10:15 | 48.72830 | 19.98449 | 29431 ft | 418 kts | 195° |
| 2026-05-08 10:15 | 48.70032 | 19.97549 | 28822 ft | 414 kts | 195° |
| 2026-05-08 10:15 | 48.67222 | 19.96647 | 28245 ft | 411 kts | 194° |
| 2026-05-08 10:16 | 48.64434 | 19.95752 | 27682 ft | 408 kts | 194° |
| 2026-05-08 10:16 | 48.61664 | 19.94863 | 27101 ft | 405 kts | 194° |
| 2026-05-08 10:16 | 48.59840 | 19.94277 | 26712 ft | 403 kts | 194° |
| 2026-05-08 10:16 | 48.57103 | 19.93400 | 26127 ft | 400 kts | 194° |
| 2026-05-08 10:17 | 48.53499 | 19.92247 | 25384 ft | 396 kts | 194° |
| 2026-05-08 10:17 | 48.51677 | 19.91664 | 25008 ft | 394 kts | 194° |
| 2026-05-08 10:17 | 48.49034 | 19.90819 | 24442 ft | 392 kts | 194° |
| 2026-05-08 10:17 | 48.46374 | 19.89972 | 23873 ft | 389 kts | 194° |
| 2026-05-08 10:18 | 48.43727 | 19.89130 | 23317 ft | 387 kts | 194° |
| 2026-05-08 10:18 | 48.41104 | 19.88296 | 22777 ft | 384 kts | 194° |
| 2026-05-08 10:18 | 48.38491 | 19.87464 | 22224 ft | 381 kts | 194° |
| 2026-05-08 10:18 | 48.35905 | 19.86643 | 21656 ft | 378 kts | 193° |
| 2026-05-08 10:19 | 48.33339 | 19.85831 | 21094 ft | 375 kts | 193° |
| 2026-05-08 10:19 | 48.30790 | 19.85025 | 20562 ft | 373 kts | 194° |
| 2026-05-08 10:19 | 48.28259 | 19.84222 | 20044 ft | 370 kts | 193° |
| 2026-05-08 10:20 | 48.23275 | 19.82643 | 19047 ft | 366 kts | 193° |
| 2026-05-08 10:20 | 48.20790 | 19.81858 | 18588 ft | 363 kts | 193° |
| 2026-05-08 10:20 | 48.18315 | 19.81079 | 18130 ft | 361 kts | 193° |
| 2026-05-08 10:20 | 48.15858 | 19.80360 | 17667 ft | 359 kts | 192° |
| 2026-05-08 10:21 | 48.13403 | 19.79674 | 17192 ft | 357 kts | 192° |
| 2026-05-08 10:21 | 48.10963 | 19.78992 | 16732 ft | 355 kts | 192° |
| 2026-05-08 10:21 | 48.08542 | 19.78318 | 16268 ft | 352 kts | 192° |
| 2026-05-08 10:21 | 48.06135 | 19.77646 | 15810 ft | 350 kts | 192° |
| 2026-05-08 10:22 | 48.03774 | 19.76990 | 15393 ft | 348 kts | 192° |
| 2026-05-08 10:22 | 48.01387 | 19.76326 | 14977 ft | 346 kts | 192° |
| 2026-05-08 10:22 | 47.99029 | 19.75670 | 14538 ft | 344 kts | 192° |
| 2026-05-08 10:22 | 47.96678 | 19.75018 | 14078 ft | 342 kts | 192° |
| 2026-05-08 10:23 | 47.94345 | 19.74371 | 13654 ft | 340 kts | 192° |
| 2026-05-08 10:23 | 47.92030 | 19.73729 | 13242 ft | 338 kts | 192° |
| 2026-05-08 10:23 | 47.89721 | 19.73090 | 12808 ft | 336 kts | 192° |
| 2026-05-08 10:23 | 47.87432 | 19.72455 | 12372 ft | 333 kts | 192° |
| 2026-05-08 10:24 | 47.85190 | 19.71836 | 11925 ft | 331 kts | 192° |
| 2026-05-08 10:24 | 47.82928 | 19.71211 | 11491 ft | 330 kts | 192° |
| 2026-05-08 10:24 | 47.80673 | 19.70586 | 11084 ft | 328 kts | 192° |
| 2026-05-08 10:24 | 47.78429 | 19.69966 | 10780 ft | 327 kts | 191° |
| 2026-05-08 10:25 | 47.76196 | 19.69353 | 10532 ft | 321 kts | 191° |
| 2026-05-08 10:25 | 47.74032 | 19.68757 | 10334 ft | 309 kts | 191° |
| 2026-05-08 10:25 | 47.71957 | 19.68187 | 10167 ft | 297 kts | 191° |
| 2026-05-08 10:25 | 47.69978 | 19.67642 | 9922 ft | 289 kts | 191° |
| 2026-05-08 10:26 | 47.68001 | 19.67101 | 9588 ft | 288 kts | 191° |
| 2026-05-08 10:26 | 47.66028 | 19.66560 | 9232 ft | 288 kts | 191° |
| 2026-05-08 10:26 | 47.64051 | 19.66021 | 8874 ft | 288 kts | 191° |
| 2026-05-08 10:26 | 47.62076 | 19.65480 | 8535 ft | 288 kts | 191° |
| 2026-05-08 10:27 | 47.60103 | 19.64942 | 8204 ft | 287 kts | 191° |
| 2026-05-08 10:27 | 47.58144 | 19.64404 | 7888 ft | 285 kts | 191° |
| 2026-05-08 10:27 | 47.56202 | 19.63874 | 7577 ft | 283 kts | 191° |
| 2026-05-08 10:27 | 47.54290 | 19.63350 | 7254 ft | 282 kts | 191° |
| 2026-05-08 10:28 | 47.52361 | 19.62821 | 6921 ft | 281 kts | 191° |
| 2026-05-08 10:28 | 47.50441 | 19.62297 | 6593 ft | 279 kts | 191° |
| 2026-05-08 10:28 | 47.48540 | 19.61780 | 6258 ft | 275 kts | 191° |
| 2026-05-08 10:28 | 47.46681 | 19.61269 | 5935 ft | 273 kts | 191° |
| 2026-05-08 10:29 | 47.44817 | 19.60760 | 5619 ft | 271 kts | 191° |
| 2026-05-08 10:29 | 47.42968 | 19.60257 | 5299 ft | 270 kts | 191° |
| 2026-05-08 10:29 | 47.41115 | 19.59752 | 4996 ft | 268 kts | 191° |
| 2026-05-08 10:29 | 47.39284 | 19.59253 | 4686 ft | 267 kts | 191° |
| 2026-05-08 10:30 | 47.37464 | 19.58764 | 4368 ft | 265 kts | 191° |
| 2026-05-08 10:30 | 47.35700 | 19.58115 | 4008 ft | 264 kts | 205° |
| 2026-05-08 10:30 | 47.34230 | 19.56581 | 3778 ft | 255 kts | 222° |
| 2026-05-08 10:30 | 47.32967 | 19.54829 | 3631 ft | 244 kts | 224° |
| 2026-05-08 10:31 | 47.31774 | 19.53150 | 3499 ft | 231 kts | 225° |
| 2026-05-08 10:31 | 47.30860 | 19.51296 | 3330 ft | 217 kts | 248° |
| 2026-05-08 10:31 | 47.30574 | 19.49188 | 3117 ft | 208 kts | 275° |
| 2026-05-08 10:31 | 47.31062 | 19.47236 | 2864 ft | 205 kts | 306° |
| 2026-05-08 10:32 | 47.32025 | 19.45678 | 2720 ft | 206 kts | 314° |
| 2026-05-08 10:32 | 47.33031 | 19.44177 | 2731 ft | 206 kts | 313° |
| 2026-05-08 10:32 | 47.34011 | 19.42675 | 2562 ft | 204 kts | 314° |
| 2026-05-08 10:32 | 47.34996 | 19.41163 | 2473 ft | 205 kts | 311° |
| 2026-05-08 10:33 | 47.35921 | 19.39682 | 2367 ft | 190 kts | 312° |
| 2026-05-08 10:33 | 47.36789 | 19.38286 | 2133 ft | 179 kts | 312° |
| 2026-05-08 10:33 | 47.37599 | 19.36981 | 1901 ft | 167 kts | 311° |
| 2026-05-08 10:33 | 47.38359 | 19.35756 | 1648 ft | 156 kts | 311° |
| 2026-05-08 10:34 | 47.39070 | 19.34609 | 1422 ft | 150 kts | 311° |
| 2026-05-08 10:34 | 47.39769 | 19.33481 | 1228 ft | 150 kts | 311° |
| 2026-05-08 10:34 | 47.40473 | 19.32346 | 1033 ft | 150 kts | 311° |
| 2026-05-08 10:34 | 47.41174 | 19.31207 | 832 ft | 149 kts | 310° |
| 2026-05-08 10:35 | 47.41868 | 19.30070 | 633 ft | 149 kts | 311° |
| 2026-05-08 10:35 | 47.42568 | 19.28944 | 455 ft | 144 kts | 312° |
| 2026-05-08 10:35 | 47.43159 | 19.27990 | 467 ft | 102 kts | 312° |
| 2026-05-08 10:35 | 47.43524 | 19.27402 | 475 ft | 53 kts | 312° |
| 2026-05-08 10:36 | 47.43683 | 19.27127 | 478 ft | 29 kts | 298° |
| 2026-05-08 10:36 | 47.43754 | 19.26844 | 472 ft | 30 kts | 280° |
| 2026-05-08 10:36 | 47.43791 | 19.26586 | 465 ft | 13 kts | 283° |
| 2026-05-08 10:36 | 47.43780 | 19.26462 | 463 ft | 14 kts | 223° |
| 2026-05-08 10:37 | 47.43703 | 19.26355 | 463 ft | 16 kts | 223° |
| 2026-05-08 10:37 | 47.43617 | 19.26239 | 461 ft | 18 kts | 222° |
| 2026-05-08 10:37 | 47.43559 | 19.26169 | 463 ft | 9 kts | 201° |
| 2026-05-08 10:37 | 47.43489 | 19.26167 | 463 ft | 10 kts | 176° |
| 2026-05-08 10:38 | 47.43459 | 19.26169 | 463 ft | 1 kts | 178° |
| 2026-05-08 10:38 | 47.43453 | 19.26169 | 463 ft | 0 kts | 178° |